createdAt,value
2018-05-18T00:01:23.220Z,3.47
2018-05-18T00:03:51.518Z,3.10
2018-05-18T00:06:19.824Z,3.03
2018-05-18T00:08:48.921Z,3.23
2018-05-18T00:11:17.240Z,3.43
2018-05-18T00:13:45.548Z,3.20
2018-05-18T00:16:13.846Z,3.17
2018-05-18T00:18:42.152Z,2.97
2018-05-18T00:21:10.460Z,3.37
2018-05-18T00:23:38.788Z,2.70
2018-05-18T00:26:07.076Z,3.17
2018-05-18T00:28:35.397Z,3.17
2018-05-18T00:31:03.684Z,3.13
2018-05-18T00:33:32.004Z,3.27
2018-05-18T00:36:00.313Z,3.77
2018-05-18T00:38:28.628Z,3.07
2018-05-18T00:40:56.917Z,2.93
2018-05-18T00:43:25.250Z,3.37
2018-05-18T00:45:53.537Z,3.03
2018-05-18T00:48:21.860Z,3.43
2018-05-18T00:50:50.161Z,3.60
2018-05-18T00:53:19.241Z,3.33
2018-05-18T00:55:47.522Z,3.50
2018-05-18T00:58:15.864Z,3.33
2018-05-18T01:00:44.925Z,3.53
2018-05-18T01:03:13.264Z,3.00
2018-05-18T01:05:41.592Z,3.03
2018-05-18T01:08:09.940Z,3.20
2018-05-18T01:10:38.260Z,3.43
2018-05-18T01:13:06.570Z,3.20
2018-05-18T01:15:34.868Z,3.63
2018-05-18T01:18:03.191Z,3.00
2018-05-18T01:20:31.507Z,2.60
2018-05-18T01:23:00.617Z,3.60
2018-05-18T01:25:28.939Z,3.90
2018-05-18T01:27:57.253Z,3.43
2018-05-18T01:30:25.548Z,2.63
2018-05-18T01:32:53.865Z,3.27
2018-05-18T01:35:22.148Z,3.53
2018-05-18T01:37:50.502Z,3.47
2018-05-18T01:40:18.810Z,3.37
2018-05-18T01:42:47.153Z,2.97
2018-05-18T01:45:16.212Z,3.53
2018-05-18T01:47:44.533Z,3.57
2018-05-18T01:50:12.819Z,2.77
2018-05-18T01:52:41.127Z,3.23
2018-05-18T01:55:09.415Z,2.93
2018-05-18T01:57:37.741Z,3.10
2018-05-18T02:00:06.803Z,3.13
2018-05-18T02:02:35.105Z,3.73
2018-05-18T02:05:04.188Z,3.27
2018-05-18T02:07:32.491Z,3.77
2018-05-18T02:10:00.820Z,2.80
2018-05-18T02:12:29.916Z,3.83
2018-05-18T02:14:58.237Z,3.80
2018-05-18T02:17:26.576Z,3.43
2018-05-18T02:19:54.896Z,3.60
2018-05-18T02:22:23.183Z,3.50
2018-05-18T02:24:51.507Z,3.27
2018-05-18T02:27:19.797Z,3.17
2018-05-18T02:29:48.116Z,3.93
2018-05-18T02:32:16.408Z,3.47
2018-05-18T02:34:44.764Z,3.87
2018-05-18T02:37:13.059Z,4.07
2018-05-18T02:39:41.401Z,3.90
2018-05-18T02:42:10.465Z,3.50
2018-05-18T02:44:38.786Z,2.93
2018-05-18T02:47:07.837Z,3.67
2018-05-18T02:49:36.153Z,4.17
2018-05-18T02:52:05.221Z,3.70
2018-05-18T02:54:33.537Z,4.07
2018-05-18T02:57:01.872Z,3.70
2018-05-18T02:59:30.192Z,4.07
2018-05-18T03:01:58.477Z,3.17
2018-05-18T03:04:26.829Z,4.37
2018-05-18T03:06:55.901Z,3.67
2018-05-18T03:09:24.229Z,3.33
2018-05-18T03:11:52.535Z,3.83
2018-05-18T03:14:20.869Z,4.23
2018-05-18T03:16:49.200Z,4.03
2018-05-18T03:19:17.514Z,4.27
2018-05-18T03:21:46.589Z,4.60
2018-05-18T03:24:14.916Z,3.17
2018-05-18T03:26:43.204Z,4.70
2018-05-18T03:29:11.520Z,3.97
2018-05-18T03:31:39.813Z,3.77
2018-05-18T03:34:08.141Z,4.20
2018-05-18T03:36:36.479Z,4.43
2018-05-18T03:39:05.548Z,4.17
2018-05-18T03:41:34.684Z,3.90
2018-05-18T03:44:03.165Z,4.00
2018-05-18T03:46:31.523Z,4.53
2018-05-18T03:49:00.704Z,4.47
2018-05-18T03:51:29.045Z,4.30
2018-05-18T03:53:57.416Z,3.73
2018-05-18T03:56:25.815Z,4.47
2018-05-18T03:58:54.201Z,4.70
2018-05-18T04:04:36.231Z,4.00
2018-05-18T04:07:16.264Z,3.50
2018-05-18T04:09:44.608Z,4.70
2018-05-18T04:12:12.900Z,4.10
2018-05-18T04:14:41.236Z,4.53
2018-05-18T04:17:09.525Z,3.53
2018-05-18T04:19:38.625Z,4.67
2018-05-18T04:22:07.686Z,6.17
2018-05-18T04:24:36.003Z,6.47
2018-05-18T04:27:05.072Z,4.13
2018-05-18T04:29:34.171Z,5.83
2018-05-18T04:32:03.233Z,7.93
2018-05-18T04:34:31.543Z,4.33
2018-05-18T04:36:59.818Z,3.67
2018-05-18T04:39:28.108Z,8.87
2018-05-18T04:41:57.227Z,7.00
2018-05-18T04:44:25.524Z,4.90
2018-05-18T04:46:53.862Z,4.30
2018-05-18T04:49:22.184Z,3.43
2018-05-18T04:51:50.515Z,6.70
2018-05-18T04:54:19.565Z,4.33
2018-05-18T04:56:47.903Z,4.77
2018-05-18T04:59:16.200Z,5.03
2018-05-18T05:01:44.536Z,4.47
2018-05-18T05:04:12.816Z,4.10
2018-05-18T05:06:41.901Z,4.43
2018-05-18T05:09:10.179Z,4.17
2018-05-18T05:11:38.503Z,5.33
2018-05-18T05:14:06.858Z,3.97
2018-05-18T05:16:35.238Z,4.60
2018-05-18T05:19:03.556Z,4.60
2018-05-18T05:21:31.883Z,5.53
2018-05-18T05:24:00.944Z,5.83
2018-05-18T05:26:29.256Z,10.43
2018-05-18T05:28:58.324Z,5.90
2018-05-18T05:31:26.645Z,5.23
2018-05-18T05:33:54.939Z,7.80
2018-05-18T05:36:23.264Z,5.47
2018-05-18T05:38:51.570Z,5.63
2018-05-18T05:41:20.723Z,6.40
2018-05-18T05:43:49.016Z,7.53
2018-05-18T05:46:17.352Z,7.80
2018-05-18T05:48:45.655Z,7.70
2018-05-18T05:51:13.997Z,8.77
2018-05-18T05:53:42.309Z,9.13
2018-05-18T05:56:10.633Z,10.27
2018-05-18T05:58:38.928Z,8.80
2018-05-18T06:01:07.248Z,9.53
2018-05-18T06:03:35.558Z,9.10
2018-05-18T06:06:04.649Z,8.83
2018-05-18T06:08:33.721Z,8.77
2018-05-18T06:11:02.032Z,8.73
2018-05-18T06:13:30.340Z,8.03
2018-05-18T06:15:58.662Z,8.57
2018-05-18T06:18:26.987Z,9.03
2018-05-18T06:20:55.329Z,8.73
2018-05-18T06:23:23.686Z,8.00
2018-05-18T06:25:52.009Z,8.73
2018-05-18T06:28:20.329Z,8.23
2018-05-18T06:30:48.622Z,9.17
2018-05-18T06:33:17.005Z,8.20
2018-05-18T06:35:46.130Z,8.90
2018-05-18T06:38:14.537Z,9.63
2018-05-18T06:40:42.904Z,8.67
2018-05-18T06:43:11.324Z,10.03
2018-05-18T06:45:39.621Z,9.80
2018-05-18T06:48:07.941Z,12.33
2018-05-18T06:50:36.266Z,13.07
2018-05-18T06:53:05.424Z,12.80
2018-05-18T06:55:33.757Z,13.93
2018-05-18T06:58:02.941Z,15.70
2018-05-18T07:00:31.320Z,14.13
2018-05-18T07:02:59.720Z,14.70
2018-05-18T07:05:28.885Z,13.87
2018-05-18T07:07:58.202Z,15.97
2018-05-18T07:10:26.639Z,15.93
2018-05-18T07:12:55.748Z,14.30
2018-05-18T07:15:24.908Z,18.90
2018-05-18T07:17:53.292Z,28.70
2018-05-18T07:20:21.674Z,16.97
2018-05-18T07:22:50.026Z,16.50
2018-05-18T07:25:18.333Z,16.03
2018-05-18T07:27:46.680Z,17.70
2018-05-18T07:30:14.969Z,15.80
2018-05-18T07:32:44.080Z,16.63
2018-05-18T07:35:12.424Z,16.70
2018-05-18T07:37:41.525Z,18.07
2018-05-18T07:40:09.812Z,18.10
2018-05-18T07:42:38.907Z,17.67
2018-05-18T07:45:07.968Z,18.50
2018-05-18T07:47:36.284Z,18.77
2018-05-18T07:50:05.434Z,17.37
2018-05-18T07:52:34.463Z,17.50
2018-05-18T07:55:03.551Z,17.93
2018-05-18T07:57:31.891Z,17.70
2018-05-18T08:00:00.198Z,17.53
2018-05-18T08:02:28.541Z,16.30
2018-05-18T08:04:56.846Z,17.83
2018-05-18T08:07:25.176Z,16.57
2018-05-18T08:09:53.515Z,17.27
2018-05-18T08:12:21.848Z,17.17
2018-05-18T08:14:50.184Z,17.33
2018-05-18T08:17:18.537Z,17.10
2018-05-18T08:19:46.848Z,16.73
2018-05-18T08:22:15.909Z,17.23
2018-05-18T08:24:44.263Z,16.07
2018-05-18T08:27:23.590Z,15.80
2018-05-18T08:29:51.904Z,15.83
2018-05-18T08:32:20.252Z,15.97
2018-05-18T08:34:48.605Z,15.13
2018-05-18T08:37:17.665Z,15.53
2018-05-18T08:39:46.016Z,16.57
2018-05-18T08:42:14.313Z,15.53
2018-05-18T08:44:43.409Z,16.27
2018-05-18T08:47:11.709Z,16.27
2018-05-18T08:49:40.828Z,15.63
2018-05-18T08:52:09.148Z,16.60
2018-05-18T08:54:37.488Z,16.20
2018-05-18T08:57:05.830Z,15.47
2018-05-18T08:59:34.170Z,15.43
2018-05-18T09:02:02.472Z,15.13
2018-05-18T09:04:30.809Z,16.53
2018-05-18T09:06:59.117Z,15.90
2018-05-18T09:09:27.455Z,15.53
2018-05-18T09:11:55.764Z,13.67
2018-05-18T09:14:24.879Z,15.60
2018-05-18T09:16:53.198Z,15.53
2018-05-18T09:19:21.529Z,15.00
2018-05-18T09:21:49.872Z,15.00
2018-05-18T09:24:18.220Z,15.80
2018-05-18T09:26:47.279Z,15.30
2018-05-18T09:29:15.628Z,14.23
2018-05-18T09:31:43.972Z,14.63
2018-05-18T09:34:13.088Z,14.43
2018-05-18T09:36:41.396Z,14.37
2018-05-18T09:39:09.801Z,14.20
2018-05-18T09:41:38.126Z,13.30
2018-05-18T09:44:06.460Z,14.63
2018-05-18T09:46:34.781Z,14.40
2018-05-18T09:49:03.127Z,15.13
2018-05-18T09:51:31.461Z,14.00
2018-05-18T09:53:59.801Z,15.57
2018-05-18T09:56:28.103Z,14.03
2018-05-18T09:58:56.440Z,16.03
2018-05-18T10:01:24.744Z,14.23
2018-05-18T10:03:53.089Z,14.27
2018-05-18T10:06:21.382Z,12.93
2018-05-18T10:08:50.447Z,13.50
2018-05-18T10:11:18.783Z,12.20
2018-05-18T10:13:47.080Z,13.97
2018-05-18T10:16:15.471Z,13.00
2018-05-18T10:18:43.791Z,12.83
2018-05-18T10:21:12.881Z,13.30
2018-05-18T10:23:41.945Z,14.30
2018-05-18T10:26:10.264Z,13.77
2018-05-18T10:28:38.614Z,14.43
2018-05-18T10:31:06.948Z,13.07
2018-05-18T10:33:35.257Z,12.53
2018-05-18T10:36:03.597Z,12.97
2018-05-18T10:38:32.265Z,12.67
2018-05-18T10:41:00.599Z,12.87
2018-05-18T10:43:28.940Z,11.40
2018-05-18T10:45:57.289Z,12.03
2018-05-18T10:48:26.354Z,10.93
2018-05-18T10:50:54.708Z,11.03
2018-05-18T10:53:23.010Z,11.03
2018-05-18T10:55:51.356Z,10.83
2018-05-18T10:58:19.715Z,10.30
2018-05-18T11:00:47.977Z,11.30
2018-05-18T11:03:17.124Z,10.00
2018-05-18T11:05:45.404Z,9.87
2018-05-18T11:08:13.693Z,8.87
2018-05-18T11:10:42.047Z,8.83
2018-05-18T11:13:11.104Z,9.90
2018-05-18T11:15:40.220Z,9.40
2018-05-18T11:18:08.515Z,9.03
2018-05-18T11:20:36.857Z,8.67
2018-05-18T11:23:05.950Z,8.43
2018-05-18T11:25:35.071Z,8.40
2018-05-18T11:28:03.421Z,7.87
2018-05-18T11:30:31.813Z,8.63
2018-05-18T11:33:00.133Z,7.87
2018-05-18T11:35:28.533Z,7.37
2018-05-18T11:37:56.944Z,6.53
2018-05-18T11:40:25.331Z,7.23
2018-05-18T11:42:53.680Z,7.07
2018-05-18T11:45:22.042Z,6.60
2018-05-18T11:47:50.446Z,5.93
2018-05-18T11:50:19.653Z,6.43
2018-05-18T11:52:48.031Z,5.47
2018-05-18T11:55:16.433Z,5.73
2018-05-18T11:57:44.781Z,5.73
2018-05-18T12:00:13.888Z,4.80
2018-05-18T12:02:43.033Z,5.20
2018-05-18T12:05:11.461Z,5.40
2018-05-18T12:07:39.860Z,4.47
2018-05-18T12:10:08.205Z,4.60
2018-05-18T12:12:37.376Z,4.93
2018-05-18T12:15:06.474Z,4.50
2018-05-18T12:17:34.836Z,5.00
2018-05-18T12:20:03.143Z,4.67
2018-05-18T12:22:31.456Z,4.87
2018-05-18T12:25:00.518Z,5.13
2018-05-18T12:27:28.848Z,5.03
2018-05-18T12:29:57.136Z,4.57
2018-05-18T12:32:25.454Z,5.33
2018-05-18T12:34:53.809Z,4.77
2018-05-18T12:37:22.905Z,5.23
2018-05-18T12:39:51.199Z,6.00
2018-05-18T12:42:19.520Z,5.33
2018-05-18T12:44:47.841Z,4.80
2018-05-18T12:47:16.169Z,5.03
2018-05-18T12:49:44.471Z,4.67
2018-05-18T12:52:12.803Z,4.27
2018-05-18T12:54:41.113Z,5.00
2018-05-18T12:57:09.428Z,4.33
2018-05-18T12:59:37.724Z,5.10
2018-05-18T13:02:06.082Z,5.30
2018-05-18T13:04:34.372Z,4.53
2018-05-18T13:07:02.721Z,4.73
2018-05-18T13:09:31.048Z,4.27
2018-05-18T13:12:00.176Z,4.30
2018-05-18T13:14:28.598Z,4.50
2018-05-18T13:16:57.034Z,4.17
2018-05-18T13:19:25.406Z,3.90
2018-05-18T13:21:54.523Z,4.70
2018-05-18T13:24:22.899Z,4.00
2018-05-18T13:26:51.275Z,4.33
2018-05-18T13:29:19.671Z,4.10
2018-05-18T13:31:48.042Z,3.90
2018-05-18T13:34:16.479Z,4.30
2018-05-18T13:36:44.821Z,4.30
2018-05-18T13:39:13.200Z,4.77
2018-05-18T13:41:42.298Z,4.37
2018-05-18T13:44:10.726Z,4.60
2018-05-18T13:46:39.085Z,4.30
2018-05-18T13:49:07.432Z,3.87
2018-05-18T13:51:35.765Z,4.60
2018-05-18T13:54:04.185Z,4.63
2018-05-18T13:56:32.543Z,4.43
2018-05-18T13:59:01.021Z,5.63
2018-05-18T14:01:29.401Z,5.97
2018-05-18T14:03:57.809Z,5.10
2018-05-18T14:06:26.163Z,4.87
2018-05-18T14:08:54.552Z,4.47
2018-05-18T14:11:22.924Z,4.37
2018-05-18T14:13:51.295Z,4.17
2018-05-18T14:16:19.664Z,5.10
2018-05-18T14:18:48.041Z,5.33
2018-05-18T14:21:16.478Z,5.73
2018-05-18T14:23:44.912Z,5.93
2018-05-18T14:26:13.237Z,4.83
2018-05-18T14:28:41.610Z,4.73
2018-05-18T14:31:10.017Z,4.33
2018-05-18T14:33:38.403Z,4.40
2018-05-18T14:36:06.762Z,3.90
2018-05-18T14:38:35.160Z,3.97
2018-05-18T14:41:04.289Z,3.83
2018-05-18T14:43:32.643Z,3.77
2018-05-18T14:46:01.030Z,3.90
2018-05-18T14:48:29.428Z,3.60
2018-05-18T14:50:57.788Z,3.63
2018-05-18T14:53:26.209Z,3.73
2018-05-18T14:55:54.567Z,3.70
2018-05-18T14:58:23.030Z,3.80
2018-05-18T15:00:51.392Z,3.83
2018-05-18T15:03:20.597Z,3.67
2018-05-18T15:05:49.750Z,3.53
2018-05-18T15:08:18.188Z,3.80
2018-05-18T15:10:46.576Z,3.80
2018-05-18T15:13:14.973Z,3.87
2018-05-18T15:15:43.346Z,3.30
2018-05-18T15:18:11.707Z,3.93
2018-05-18T15:20:40.095Z,3.30
2018-05-18T15:23:08.431Z,3.17
2018-05-18T15:25:37.548Z,3.37
2018-05-18T15:28:05.908Z,3.40
2018-05-18T15:30:35.097Z,2.80
2018-05-18T15:33:04.273Z,3.50
2018-05-18T15:35:33.505Z,2.97
2018-05-18T15:38:01.871Z,3.43
2018-05-18T15:40:30.193Z,3.30
2018-05-18T15:42:58.484Z,3.47
2018-05-18T15:45:26.867Z,2.80
2018-05-18T15:47:55.164Z,3.23
2018-05-18T15:50:23.505Z,3.40
2018-05-18T15:52:51.797Z,3.10
2018-05-18T15:55:20.116Z,3.20
2018-05-18T15:57:48.480Z,3.10
2018-05-18T16:00:17.589Z,3.27
2018-05-18T16:02:45.876Z,3.17
2018-05-18T16:05:14.189Z,3.60
2018-05-18T16:07:42.497Z,3.03
2018-05-18T16:10:10.852Z,2.90
2018-05-18T16:12:39.141Z,2.87
2018-05-18T16:15:07.492Z,2.93
2018-05-18T16:17:35.820Z,3.00
2018-05-18T16:20:04.205Z,3.20
2018-05-18T16:22:32.505Z,3.10
2018-05-18T16:25:00.894Z,3.10
2018-05-18T16:27:29.248Z,3.13
2018-05-18T16:29:57.567Z,2.70
2018-05-18T16:32:25.880Z,2.50
2018-05-18T16:34:55.007Z,2.50
2018-05-18T16:37:23.291Z,2.37
2018-05-18T16:39:52.383Z,2.60
2018-05-18T16:42:21.445Z,2.37
2018-05-18T16:44:49.765Z,2.20
2018-05-18T16:47:18.906Z,2.40
2018-05-18T16:49:47.234Z,2.60
2018-05-18T16:52:16.320Z,2.37
2018-05-18T16:54:45.425Z,2.73
2018-05-18T16:57:13.772Z,2.47
2018-05-18T16:59:42.105Z,2.50
2018-05-18T17:02:10.480Z,2.40
2018-05-18T17:04:38.776Z,2.50
2018-05-18T17:07:07.094Z,2.80
2018-05-18T17:09:35.417Z,2.47
2018-05-18T17:12:03.736Z,2.60
2018-05-18T17:14:32.027Z,3.57
2018-05-18T17:17:00.393Z,2.67
2018-05-18T17:19:28.683Z,2.50
2018-05-18T17:21:57.015Z,2.30
2018-05-18T17:24:25.313Z,2.13
2018-05-18T17:26:53.629Z,2.80
2018-05-18T17:29:21.904Z,2.43
2018-05-18T17:31:50.228Z,2.70
2018-05-18T17:34:18.520Z,2.47
2018-05-18T17:36:46.837Z,2.97
2018-05-18T17:39:15.122Z,3.97
2018-05-18T17:41:43.441Z,3.47
2018-05-18T17:44:11.755Z,3.03
2018-05-18T17:46:40.084Z,3.90
2018-05-18T17:49:08.381Z,4.50
2018-05-18T17:51:36.688Z,3.10
2018-05-18T17:54:04.985Z,3.37
2018-05-18T17:56:33.293Z,3.03
2018-05-18T17:59:01.606Z,4.93
2018-05-18T18:01:29.946Z,2.77
2018-05-18T18:03:58.224Z,3.00
2018-05-18T18:06:26.556Z,3.03
2018-05-18T18:08:54.861Z,2.40
2018-05-18T18:11:23.940Z,3.03
2018-05-18T18:13:52.232Z,6.90
2018-05-18T18:16:21.300Z,4.70
2018-05-18T18:18:49.617Z,2.60
2018-05-18T18:21:17.932Z,3.10
2018-05-18T18:23:46.215Z,2.90
2018-05-18T18:26:14.585Z,3.30
2018-05-18T18:28:42.891Z,3.33
2018-05-18T18:31:11.266Z,3.37
2018-05-18T18:33:39.552Z,3.80
2018-05-18T18:36:07.950Z,3.87
2018-05-18T18:38:36.200Z,6.43
2018-05-18T18:41:04.528Z,7.27
2018-05-18T18:43:32.846Z,4.30
2018-05-18T18:46:01.193Z,3.63
2018-05-18T18:48:29.481Z,3.97
2018-05-18T18:50:57.840Z,4.77
2018-05-18T18:53:26.127Z,4.60
2018-05-18T18:55:54.447Z,5.83
2018-05-18T18:58:22.744Z,5.70
2018-05-18T19:00:51.841Z,6.00
2018-05-18T19:03:20.895Z,5.63
2018-05-18T19:05:49.199Z,6.77
2018-05-18T19:08:17.552Z,6.40
2018-05-18T19:10:45.879Z,8.37
2018-05-18T19:13:14.957Z,8.70
2018-05-18T19:15:44.028Z,8.53
2018-05-18T19:18:12.370Z,9.07
2018-05-18T19:20:40.668Z,8.47
2018-05-18T19:23:09.000Z,9.67
2018-05-18T19:25:38.104Z,9.70
2018-05-18T19:28:06.424Z,9.70
2018-05-18T19:30:34.793Z,9.33
2018-05-18T19:33:03.100Z,10.53
2018-05-18T19:35:31.484Z,12.97
2018-05-18T19:38:00.684Z,8.70
2018-05-18T19:40:29.060Z,9.53
2018-05-18T19:42:57.419Z,8.83
2018-05-18T19:45:25.759Z,8.00
2018-05-18T19:47:54.101Z,8.33
2018-05-18T19:50:22.395Z,8.20
2018-05-18T19:52:51.464Z,7.90
2018-05-18T19:55:19.755Z,7.50
2018-05-18T19:57:48.840Z,7.47
2018-05-18T20:00:17.135Z,7.13
2018-05-18T20:02:46.252Z,7.13
2018-05-18T20:05:14.563Z,7.57
2018-05-18T20:07:42.879Z,6.53
2018-05-18T20:10:11.198Z,9.93
2018-05-18T20:12:39.521Z,7.27
2018-05-18T20:15:07.825Z,6.37
2018-05-18T20:17:36.946Z,6.20
2018-05-18T20:20:05.269Z,6.57
2018-05-18T20:22:33.624Z,5.93
2018-05-18T20:25:01.967Z,5.67
2018-05-18T20:27:30.252Z,5.97
2018-05-18T20:29:58.538Z,6.30
2018-05-18T20:32:26.860Z,5.73
2018-05-18T20:34:55.156Z,5.10
2018-05-18T20:37:24.258Z,5.50
2018-05-18T20:39:52.565Z,5.93
2018-05-18T20:42:20.884Z,7.93
2018-05-18T20:44:49.184Z,8.33
2018-05-18T20:47:18.297Z,6.03
2018-05-18T20:49:46.591Z,5.83
2018-05-18T20:52:14.927Z,5.97
2018-05-18T20:54:43.210Z,6.00
2018-05-18T20:57:12.298Z,5.90
2018-05-18T20:59:40.590Z,6.27
2018-05-18T21:02:09.644Z,5.77
2018-05-18T21:04:37.975Z,5.43
2018-05-18T21:07:06.329Z,6.50
2018-05-18T21:09:34.693Z,6.27
2018-05-18T21:12:02.980Z,5.47
2018-05-18T21:14:31.338Z,5.63
2018-05-18T21:16:59.641Z,6.27
2018-05-18T21:19:27.962Z,5.97
2018-05-18T21:21:56.340Z,5.53
2018-05-18T21:24:24.658Z,6.20
2018-05-18T21:26:52.939Z,5.97
2018-05-18T21:29:21.280Z,5.80
2018-05-18T21:31:49.573Z,6.37
2018-05-18T21:34:17.895Z,6.60
2018-05-18T21:36:46.960Z,6.40
2018-05-18T21:39:15.325Z,6.20
2018-05-18T21:41:43.608Z,6.37
2018-05-18T21:44:11.942Z,6.00
2018-05-18T21:46:40.240Z,6.37
2018-05-18T21:49:08.560Z,6.07
2018-05-18T21:51:36.860Z,6.13
2018-05-18T21:54:05.201Z,6.40
2018-05-18T21:56:33.494Z,5.67
2018-05-18T21:59:01.803Z,6.20
2018-05-18T22:01:30.120Z,5.37
2018-05-18T22:03:58.447Z,5.47
2018-05-18T22:06:27.521Z,5.20
2018-05-18T22:08:56.660Z,5.73
2018-05-18T22:11:24.987Z,6.10
2018-05-18T22:13:53.354Z,5.83
2018-05-18T22:16:21.658Z,5.97
2018-05-18T22:18:49.967Z,5.40
2018-05-18T22:21:18.289Z,6.07
2018-05-18T22:23:46.604Z,5.63
2018-05-18T22:26:15.692Z,5.50
2018-05-18T22:28:44.003Z,5.43
2018-05-18T22:31:12.331Z,5.70
2018-05-18T22:33:40.661Z,5.30
2018-05-18T22:36:08.940Z,5.50
2018-05-18T22:38:37.266Z,5.83
2018-05-18T22:41:05.689Z,5.93
2018-05-18T22:43:34.000Z,6.07
2018-05-18T22:46:02.328Z,5.40
2018-05-18T22:48:31.400Z,5.87
2018-05-18T22:50:59.713Z,5.43
2018-05-18T22:53:28.003Z,5.40
2018-05-18T22:55:56.362Z,5.80
2018-05-18T22:58:24.653Z,6.43
2018-05-18T23:00:52.988Z,5.83
2018-05-18T23:03:21.268Z,6.03
2018-05-18T23:05:49.587Z,6.37
2018-05-18T23:08:17.907Z,5.27
2018-05-18T23:10:46.260Z,5.43
2018-05-18T23:13:14.551Z,5.10
2018-05-18T23:15:42.862Z,5.73
2018-05-18T23:18:11.176Z,5.40
2018-05-18T23:20:40.273Z,5.60
2018-05-18T23:23:08.636Z,5.63
2018-05-18T23:25:36.941Z,5.60
2018-05-18T23:28:05.200Z,5.80
2018-05-18T23:30:33.525Z,5.20
2018-05-18T23:33:01.835Z,6.00
2018-05-18T23:35:30.971Z,5.10
2018-05-18T23:37:59.269Z,6.33
2018-05-18T23:40:27.593Z,6.23
2018-05-18T23:42:55.908Z,6.00
2018-05-18T23:45:24.212Z,5.80
2018-05-18T23:47:52.524Z,5.97
2018-05-18T23:50:21.591Z,5.70
2018-05-18T23:52:49.884Z,6.00
2018-05-18T23:55:19.008Z,6.23
2018-05-18T23:57:47.300Z,5.17
